EDDL/DUS METAR and TAF weather

Enter ICAO airport designator
Station Type Date Time Source
EDDL METAR 2021/09/25 12:50 UTC NOAA

EDDL 251250Z VRB03KT CAVOK 21/14 Q1016 NOSIG


Station Type Date Time Source
EDDL Decoded METAR 2021/09/25 12:50 UTC NOAA

Duesseldorf, Germany (EDDL) 51-18N 006-46E 41M
Sep 25, 2021 - 08:50 AM EDT / 2021.09.25 1250 UTC
Wind: Variable at 3 MPH (3 KT):0
Visibility: greater than 7 mile(s):0
Temperature: 69 F (21 C)
Dew Point: 57 F (14 C)
Relative Humidity: 64%
Pressure (altimeter): 30.00 in. Hg (1016 hPa)
ob: EDDL 251250Z VRB03KT CAVOK 21/14 Q1016 NOSIG
cycle: 13

Station Type Date Time Source
EDDL TAF 2021/09/25 12:27 UTC NOAA

TAF EDDL 251100Z 2512/2618 19006KT 9999 FEW040
BECMG 2515/2518 13004KT
BECMG 2602/2606 17009KT
TEMPO 2613/2618 SHRA BKN025CB PROB30
TEMPO 2613/2618 20015KT 4500 TSRA BKN020CB

Example: see airport list